MUGM/NBW METAR and TAF weather

Enter ICAO airport designator
Station Type Date Time Source
MUGM METAR 2022/06/25 22:51 UTC NOAA

MUGM 252251Z 03005KT 10SM FEW015 FEW030 SCT055 29/25 A2997 RMK AO2 SLP148 OCNL LTG DSNT N CB DSNT N AND W SHRA DSNT N-NE T2 SET T02940250 $


Station Type Date Time Source
MUGM Decoded METAR 2022/06/25 22:51 UTC NOAA

GUANTANAMO BAY, CUBA NAVAL, CU, Cuba (MUGM) 19-55N 075-12W 23M
Jun 25, 2022 - 06:51 PM EDT / 2022.06.25 2251 UTC
Wind: from the NNE (030 degrees) at 6 MPH (5 KT):0
Visibility: 10 mile(s):0
Sky conditions: partly cloudy
Weather: Cumulonimbus clouds, lightning observed
Temperature: 84.9 F (29.4 C)
Dew Point: 77.0 F (25.0 C)
Relative Humidity: 77%
Pressure (altimeter): 29.97 in. Hg (1014 hPa)
ob: MUGM 252251Z 03005KT 10SM FEW015 FEW030 SCT055 29/25 A2997 RMK AO2 SLP148 OCNL LTG DSNT N CB DSNT N AND W SHRA DSNT N-NE T2 SET T02940250
cycle: 23

Station Type Date Time Source
MUGM TAF 2022/06/25 15:12 UTC NOAA

TAF TAF MUGM 2515/2615 33006KT 9999 FEW030 BKN250 QNH2995INS
BECMG 2518/2520 VRB06KT 9999 VCSH FEW030 SCT050 BKN220 QNH2992INS
TEMPO 2518/2523 13010KT 8000 -SHRA SCT030 SCT050
BECMG 2603/2605 VRB06KT 9999 VCSH SCT030 BKN250 QNH2993INS T24/2509Z T31/2516Z FN00251

Example: see airport list